Time;durP1;ratioP1;P1;durP2;ratioP2;P2;SDS_P1;SDS_P2;PMS_P1;PMS_P2;Temp;Humidity;BMP_temperature;BMP_pressure;BME280_temperature;BME280_humidity;BME280_pressure;Samples;Min_cycle;Max_cycle;Signal;HPM_P1;HPM_P2
2022/10/25 00:01:50;;;;;;;5.67;2.53;;;10.20;75.20;;;;;;4965161;28;46626;-68
2022/10/25 00:04:16;;;;;;;4.07;2.73;;;10.20;75.20;;;;;;4981491;28;46416;-67
2022/10/25 00:06:42;;;;;;;6.20;2.87;;;10.30;75.20;;;;;;4982710;28;46451;-68
2022/10/25 00:09:08;;;;;;;6.53;2.47;;;10.20;75.10;;;;;;4960559;28;45838;-69
2022/10/25 00:11:34;;;;;;;3.17;2.30;;;10.30;75.10;;;;;;4982767;28;48143;-68
2022/10/25 00:14:04;;;;;;;6.53;2.20;;;10.40;74.70;;;;;;4981611;28;46240;-67
2022/10/25 00:16:33;;;;;;;3.73;1.93;;;10.50;74.40;;;;;;4983413;28;46305;-67
2022/10/25 00:18:59;;;;;;;4.23;2.77;;;10.60;73.00;;;;;;4981446;28;46515;-68
2022/10/25 00:21:24;;;;;;;5.30;2.93;;;10.60;74.00;;;;;;4967739;28;48338;-67
2022/10/25 00:23:51;;;;;;;6.60;2.33;;;10.60;73.90;;;;;;4982339;28;46367;-67
2022/10/25 00:26:17;;;;;;;4.20;2.23;;;10.60;73.80;;;;;;4965471;28;46485;-69
2022/10/25 00:28:43;;;;;;;5.47;2.50;;;10.60;72.40;;;;;;4965321;28;46482;-69
2022/10/25 00:31:12;;;;;;;7.07;2.30;;;10.70;73.50;;;;;;4980756;28;49051;-66
2022/10/25 00:33:39;;;;;;;3.50;2.10;;;10.60;73.30;;;;;;4965483;28;46549;-68
2022/10/25 00:36:14;;;;;;;4.90;2.13;;;10.60;73.50;;;;;;4966126;28;46034;-67
2022/10/25 00:38:40;;;;;;;6.40;2.30;;;10.50;72.90;;;;;;4981845;28;46357;-68
2022/10/25 00:41:06;;;;;;;5.07;2.33;;;10.50;73.90;;;;;;4965631;28;47851;-67
2022/10/25 00:43:44;;;;;;;8.03;2.17;;;10.40;74.00;;;;;;4982572;28;46707;-67
2022/10/25 00:46:22;;;;;;;7.30;2.00;;;10.40;74.10;;;;;;4980687;28;46631;-68
2022/10/25 00:49:14;;;;;;;5.70;2.27;;;10.40;73.10;;;;;;4964660;28;45944;-66
2022/10/25 00:51:47;;;;;;;6.33;2.30;;;10.30;74.10;;;;;;4963308;28;48934;-68
2022/10/25 00:54:19;;;;;;;3.50;2.13;;;10.40;72.90;;;;;;4965808;28;46444;-68
2022/10/25 00:56:48;;;;;;;4.37;2.10;;;10.40;73.70;;;;;;4967602;28;46315;-67
2022/10/25 00:59:18;;;;;;;4.57;2.10;;;10.50;73.70;;;;;;4966073;28;46375;-69
2022/10/25 01:01:44;;;;;;;3.70;2.00;;;10.50;73.50;;;;;;4983346;28;46376;-67
2022/10/25 01:04:14;;;;;;;5.07;2.30;;;10.60;73.50;;;;;;4983293;28;46209;-68
2022/10/25 01:06:45;;;;;;;3.83;2.00;;;10.60;73.30;;;;;;4981822;28;46380;-69
2022/10/25 01:09:16;;;;;;;2.50;1.53;;;10.70;72.20;;;;;;4980720;28;46483;-68
2022/10/25 01:11:42;;;;;;;10.07;2.07;;;10.60;73.10;;;;;;4982607;28;47233;-67
2022/10/25 01:14:11;;;;;;;3.60;2.17;;;10.60;73.30;;;;;;4981325;28;46365;-67
2022/10/25 01:16:46;;;;;;;4.73;2.10;;;10.60;73.50;;;;;;4981123;28;45861;-69
2022/10/25 01:19:33;;;;;;;8.20;2.03;;;10.50;72.70;;;;;;4965742;28;46397;-68
2022/10/25 01:22:34;;;;;;;7.10;1.97;;;10.50;73.70;;;;;;4965114;28;46551;-68
2022/10/25 01:25:36;;;;;;;4.53;2.13;;;10.50;73.70;;;;;;4957527;28;46394;-68
2022/10/25 01:28:10;;;;;;;6.97;2.23;;;10.60;73.60;;;;;;4861177;29;46407;-69
2022/10/25 01:31:15;;;;;;;3.47;2.23;;;10.60;72.50;;;;;;4967397;28;46337;-69
2022/10/25 01:33:49;;;;;;;4.10;1.63;;;10.70;73.40;;;;;;4952842;28;46616;-66
2022/10/25 01:36:19;;;;;;;4.90;2.60;;;10.70;72.90;;;;;;4981775;28;46411;-66
2022/10/25 01:39:13;;;;;;;8.40;2.40;;;11.00;71.50;;;;;;4980440;28;46317;-66
2022/10/25 01:41:48;;;;;;;9.53;2.67;;;11.00;72.40;;;;;;4956429;28;46400;-67
2022/10/25 01:44:53;;;;;;;6.73;2.10;;;11.10;71.90;;;;;;4981495;28;46651;-66
2022/10/25 01:47:39;;;;;;;4.13;2.10;;;11.20;71.80;;;;;;4964860;28;45871;-66
2022/10/25 01:50:12;;;;;;;3.27;1.67;;;11.30;71.50;;;;;;4981876;28;45720;-66
2022/10/25 01:52:38;;;;;;;3.33;1.83;;;11.40;71.90;;;;;;4965451;28;46489;-67
2022/10/25 01:55:07;;;;;;;4.87;2.17;;;11.50;71.20;;;;;;4963604;28;48622;-67
2022/10/25 01:58:04;;;;;;;14.90;2.30;;;11.50;71.40;;;;;;4957086;28;46439;-67
2022/10/25 02:00:37;;;;;;;3.53;1.73;;;11.50;71.60;;;;;;4964731;28;46381;-66
2022/10/25 02:03:09;;;;;;;4.37;1.80;;;11.60;71.90;;;;;;4965416;28;46548;-67
2022/10/25 02:05:46;;;;;;;5.77;1.30;;;11.60;72.00;;;;;;4962424;28;46633;-66
2022/10/25 02:08:33;;;;;;;2.70;1.30;;;11.70;72.10;;;;;;4976828;28;45733;-67
2022/10/25 02:11:29;;;;;;;3.97;1.50;;;11.80;71.20;;;;;;4959618;28;46008;-66
2022/10/25 02:14:06;;;;;;;2.90;1.90;;;11.80;72.30;;;;;;4957778;28;46523;-67
2022/10/25 02:16:43;;;;;;;2.67;1.53;;;11.90;72.30;;;;;;4962652;28;46884;-67
2022/10/25 02:19:17;;;;;;;2.93;1.30;;;11.80;72.60;;;;;;4963609;28;46720;-67
2022/10/25 02:21:46;;;;;;;4.60;1.37;;;11.80;73.00;;;;;;4962326;28;46429;-67
2022/10/25 02:24:17;;;;;;;3.80;1.50;;;11.70;73.30;;;;;;4978239;28;46559;-66
2022/10/25 02:26:44;;;;;;;3.40;1.43;;;11.70;73.70;;;;;;4978420;28;47995;-67
2022/10/25 02:29:12;;;;;;;6.53;1.97;;;11.60;74.10;;;;;;4978806;28;45937;-67
2022/10/25 02:31:38;;;;;;;2.80;1.20;;;11.50;74.40;;;;;;4961033;28;45921;-67
2022/10/25 02:34:04;;;;;;;2.70;1.50;;;11.40;74.80;;;;;;4975366;28;46418;-67
2022/10/25 02:36:30;;;;;;;2.90;1.57;;;11.30;75.20;;;;;;4978953;28;47450;-66
2022/10/25 02:38:57;;;;;;;2.33;1.43;;;11.10;74.80;;;;;;4979953;28;46478;-66
2022/10/25 02:41:23;;;;;;;5.50;1.50;;;11.10;75.70;;;;;;4963155;28;46465;-67
2022/10/25 02:43:48;;;;;;;2.80;1.60;;;11.10;75.90;;;;;;4974726;28;46572;-66
2022/10/25 02:46:17;;;;;;;5.23;1.90;;;11.10;75.60;;;;;;4965350;28;46473;-66
2022/10/25 02:48:44;;;;;;;6.17;1.20;;;11.20;74.10;;;;;;4963770;28;46642;-67
2022/10/25 02:51:11;;;;;;;2.13;1.13;;;11.20;75.20;;;;;;4954658;28;46568;-66
2022/10/25 02:53:37;;;;;;;4.43;1.37;;;11.20;74.90;;;;;;4963413;28;46643;-66
2022/10/25 02:56:09;;;;;;;3.33;1.50;;;11.20;74.80;;;;;;4979673;28;46596;-67
2022/10/25 02:58:37;;;;;;;2.80;1.80;;;11.20;74.70;;;;;;4963661;28;46359;-67
2022/10/25 03:01:04;;;;;;;5.23;1.57;;;11.20;74.70;;;;;;4961316;28;46545;-67
2022/10/25 03:03:29;;;;;;;4.27;1.70;;;11.10;74.70;;;;;;4980670;28;46498;-66
2022/10/25 03:05:56;;;;;;;3.63;2.33;;;11.10;74.70;;;;;;4979768;28;47747;-66
2022/10/25 03:08:22;;;;;;;2.57;1.50;;;11.00;74.80;;;;;;4962098;28;46288;-67
2022/10/25 03:10:49;;;;;;;5.47;1.20;;;11.00;75.00;;;;;;4951910;28;46396;-67
2022/10/25 03:13:15;;;;;;;2.37;1.20;;;10.90;75.20;;;;;;4964024;28;46446;-67
2022/10/25 03:15:42;;;;;;;3.23;1.20;;;10.90;75.30;;;;;;4956366;28;47791;-67
2022/10/25 03:18:08;;;;;;;5.33;1.40;;;10.90;75.20;;;;;;4967043;28;46387;-67
2022/10/25 03:20:33;;;;;;;8.93;1.73;;;10.80;74.10;;;;;;4982336;28;46388;-67
2022/10/25 03:22:59;;;;;;;9.20;1.77;;;10.80;75.30;;;;;;4967030;28;46187;-67
2022/10/25 03:25:25;;;;;;;4.27;1.43;;;10.70;75.40;;;;;;4966518;28;46682;-66
2022/10/25 03:27:50;;;;;;;3.10;1.43;;;10.70;75.70;;;;;;4966320;28;46430;-67
2022/10/25 03:30:16;;;;;;;6.40;1.70;;;10.60;74.90;;;;;;4984954;28;46669;-67
2022/10/25 03:32:42;;;;;;;3.60;1.50;;;10.60;76.10;;;;;;4966125;28;45861;-67
2022/10/25 03:35:08;;;;;;;2.53;1.30;;;10.50;77.40;;;;;;4965808;28;47656;-67
2022/10/25 03:37:34;;;;;;;2.70;1.27;;;10.50;76.50;;;;;;4981323;28;46388;-67
2022/10/25 03:40:04;;;;;;;2.77;1.30;;;10.50;76.60;;;;;;4983478;28;46464;-68
2022/10/25 03:42:35;;;;;;;2.57;1.40;;;10.40;76.60;;;;;;4982999;28;46447;-68
2022/10/25 03:45:00;;;;;;;7.77;1.60;;;10.40;76.70;;;;;;4979727;28;47930;-68
2022/10/25 03:47:26;;;;;;;2.60;1.30;;;10.40;76.80;;;;;;4983822;28;46434;-67
2022/10/25 03:49:52;;;;;;;2.50;1.20;;;10.40;76.80;;;;;;4982063;28;46353;-67
2022/10/25 03:52:18;;;;;;;2.67;1.40;;;10.40;77.00;;;;;;4980953;28;46503;-68
2022/10/25 03:54:43;;;;;;;5.33;1.43;;;10.40;77.00;;;;;;4982511;28;46655;-68
2022/10/25 03:57:09;;;;;;;4.93;1.93;;;10.40;77.10;;;;;;4982462;28;46349;-68
2022/10/25 03:59:35;;;;;;;2.37;1.30;;;10.40;77.00;;;;;;4982435;28;46302;-67
2022/10/25 04:02:00;;;;;;;3.07;1.70;;;10.40;77.10;;;;;;4966116;28;46405;-68
2022/10/25 04:04:26;;;;;;;4.70;1.40;;;10.40;76.90;;;;;;4982060;28;46663;-68
2022/10/25 04:06:52;;;;;;;4.03;1.83;;;10.40;76.70;;;;;;4966173;28;46478;-68
2022/10/25 04:09:18;;;;;;;5.17;1.43;;;10.40;75.80;;;;;;4983076;28;46572;-69
2022/10/25 04:11:43;;;;;;;4.83;2.70;;;10.40;76.70;;;;;;4966428;28;46389;-68
2022/10/25 04:14:09;;;;;;;22.57;11.20;;;10.40;76.70;;;;;;4980682;28;47767;-68
2022/10/25 04:16:35;;;;;;;8.37;3.40;;;10.40;76.60;;;;;;4953944;28;46450;-68
2022/10/25 04:19:00;;;;;;;7.13;2.27;;;10.30;75.80;;;;;;4983237;28;46454;-69
2022/10/25 04:21:26;;;;;;;7.77;3.93;;;10.30;76.90;;;;;;4964800;28;46659;-68
2022/10/25 04:23:52;;;;;;;3.90;2.00;;;10.20;77.10;;;;;;4962382;28;49042;-67
2022/10/25 04:26:18;;;;;;;5.03;1.80;;;10.20;77.10;;;;;;4980690;28;46496;-67
2022/10/25 04:28:55;;;;;;;7.37;2.30;;;10.00;75.90;;;;;;4985635;28;46383;-68
2022/10/25 04:31:21;;;;;;;4.17;1.53;;;10.00;77.00;;;;;;4983093;28;46449;-67
2022/10/25 04:33:49;;;;;;;5.60;1.60;;;9.90;77.90;;;;;;4981933;28;46489;-68
2022/10/25 04:36:14;;;;;;;9.30;2.43;;;9.90;77.80;;;;;;4984601;28;46435;-68
2022/10/25 04:38:40;;;;;;;2.90;1.93;;;;;;;;;;4967247;28;46469;-68
2022/10/25 04:41:06;;;;;;;5.80;2.47;;;9.90;76.80;;;;;;4986358;28;46483;-68
2022/10/25 04:43:32;;;;;;;5.27;2.57;;;9.90;77.90;;;;;;4984238;28;47796;-68
2022/10/25 04:46:02;;;;;;;6.70;2.53;;;9.90;77.80;;;;;;4980726;28;46193;-68
2022/10/25 04:48:28;;;;;;;6.63;3.10;;;10.00;77.00;;;;;;4983369;28;46680;-68
2022/10/25 04:50:53;;;;;;;5.17;2.70;;;10.00;75.90;;;;;;4983053;28;46504;-67
2022/10/25 04:53:19;;;;;;;4.03;2.10;;;10.00;77.00;;;;;;4980764;28;46579;-68
2022/10/25 04:55:55;;;;;;;4.70;2.80;;;10.00;77.00;;;;;;4983526;28;46651;-67
2022/10/25 04:58:24;;;;;;;4.27;2.03;;;10.00;77.00;;;;;;4982543;28;45940;-68
2022/10/25 05:00:51;;;;;;;2.43;1.60;;;9.90;76.80;;;;;;4982223;28;46492;-68
2022/10/25 05:03:17;;;;;;;3.70;1.70;;;9.90;77.90;;;;;;4966603;28;46866;-67
2022/10/25 05:05:42;;;;;;;5.07;1.87;;;9.90;77.80;;;;;;4968253;28;45846;-67
2022/10/25 05:08:08;;;;;;;2.53;1.80;;;10.00;77.00;;;;;;4981681;28;46521;-68
2022/10/25 05:10:34;;;;;;;3.23;1.70;;;9.90;76.80;;;;;;4966209;28;46654;-67
2022/10/25 05:13:00;;;;;;;4.20;1.60;;;10.00;77.00;;;;;;4982437;28;46414;-68
2022/10/25 05:15:26;;;;;;;5.00;2.53;;;10.00;77.00;;;;;;4979257;28;46384;-67
2022/10/25 05:17:56;;;;;;;3.50;1.83;;;10.00;77.00;;;;;;4963797;28;46571;-67
2022/10/25 05:20:21;;;;;;;2.90;1.87;;;10.00;75.90;;;;;;4956123;28;46473;-67
2022/10/25 05:22:47;;;;;;;6.10;2.07;;;10.00;77.00;;;;;;4963711;28;47870;-68
2022/10/25 05:25:13;;;;;;;9.00;2.13;;;10.00;77.00;;;;;;4980780;28;46452;-68
2022/10/25 05:27:38;;;;;;;4.03;1.93;;;10.00;77.00;;;;;;4981795;28;46491;-67
2022/10/25 05:30:05;;;;;;;3.63;1.77;;;10.00;75.90;;;;;;4965551;28;46484;-67
2022/10/25 05:32:31;;;;;;;12.30;7.33;;;10.00;77.00;;;;;;4981341;28;46607;-67
2022/10/25 05:34:56;;;;;;;15.30;9.30;;;10.00;77.00;;;;;;4964185;28;45829;-67
2022/10/25 05:37:22;;;;;;;7.60;5.57;;;10.00;77.00;;;;;;4983074;28;46345;-69
2022/10/25 05:39:48;;;;;;;5.30;3.60;;;10.00;77.00;;;;;;4963662;28;46363;-67
2022/10/25 05:42:13;;;;;;;5.00;3.13;;;10.00;77.00;;;;;;4980524;28;49050;-67
2022/10/25 05:44:39;;;;;;;11.90;4.83;;;10.00;77.00;;;;;;4965936;28;46364;-67
2022/10/25 05:47:05;;;;;;;8.60;3.80;;;10.00;77.00;;;;;;4981595;28;46389;-70
2022/10/25 05:49:30;;;;;;;6.23;3.30;;;10.00;77.00;;;;;;4982478;28;46312;-67
2022/10/25 05:51:56;;;;;;;5.03;2.43;;;10.00;77.00;;;;;;4964678;28;49046;-67
2022/10/25 05:54:23;;;;;;;3.93;1.90;;;9.90;77.80;;;;;;4982359;28;46491;-68
2022/10/25 05:56:48;;;;;;;4.70;2.13;;;9.90;77.80;;;;;;4980784;28;46404;-68
2022/10/25 05:59:14;;;;;;;3.40;1.87;;;9.90;76.80;;;;;;4982533;28;46439;-69
2022/10/25 06:01:43;;;;;;;4.30;2.57;;;9.90;77.90;;;;;;4981690;28;46569;-68
2022/10/25 06:04:09;;;;;;;5.60;2.30;;;9.90;79.00;;;;;;4980314;28;46372;-68
2022/10/25 06:06:37;;;;;;;3.37;2.37;;;9.90;77.90;;;;;;4980820;28;46263;-68
2022/10/25 06:09:04;;;;;;;8.53;4.63;;;9.90;76.80;;;;;;4981056;28;46453;-69
2022/10/25 06:11:30;;;;;;;4.47;2.70;;;10.00;77.00;;;;;;4980750;28;46627;-68
2022/10/25 06:13:56;;;;;;;4.23;3.00;;;10.00;77.00;;;;;;4963669;28;46354;-68
2022/10/25 06:16:22;;;;;;;7.20;3.00;;;10.00;77.00;;;;;;4980551;28;45886;-67
2022/10/25 06:18:48;;;;;;;4.60;2.93;;;10.10;76.00;;;;;;4980175;28;46374;-69
2022/10/25 06:21:16;;;;;;;5.83;3.77;;;10.10;77.10;;;;;;4981396;28;48822;-67
2022/10/25 06:23:43;;;;;;;9.63;5.30;;;10.10;77.00;;;;;;4980658;28;46459;-68
2022/10/25 06:26:14;;;;;;;7.93;5.47;;;10.20;77.20;;;;;;4981860;28;46429;-68
2022/10/25 06:28:40;;;;;;;5.73;3.50;;;10.20;77.10;;;;;;4958454;28;46366;-67
2022/10/25 06:31:11;;;;;;;6.23;3.20;;;10.30;75.80;;;;;;4979833;28;46426;-66
2022/10/25 06:33:37;;;;;;;6.90;4.50;;;10.50;76.50;;;;;;4955195;28;46734;-67
2022/10/25 06:36:04;;;;;;;6.40;3.10;;;10.60;76.30;;;;;;4979298;28;46381;-67
2022/10/25 06:38:30;;;;;;;5.40;2.90;;;10.70;76.40;;;;;;4964515;28;46618;-67
2022/10/25 06:41:01;;;;;;;4.37;3.20;;;10.70;75.20;;;;;;4979710;28;47824;-67
2022/10/25 06:43:28;;;;;;;4.63;2.90;;;10.80;76.30;;;;;;4956582;28;46447;-67
2022/10/25 06:45:54;;;;;;;7.43;3.23;;;10.90;76.40;;;;;;4958800;28;46476;-67
2022/10/25 06:48:20;;;;;;;9.23;3.10;;;10.90;76.40;;;;;;4981028;28;46406;-68
2022/10/25 06:50:46;;;;;;;9.13;1.90;;;10.90;75.40;;;;;;4978927;28;47842;-67
2022/10/25 06:53:11;;;;;;;12.70;3.80;;;11.00;76.50;;;;;;4966697;28;46460;-67
2022/10/25 06:55:37;;;;;;;5.90;2.83;;;11.10;76.60;;;;;;4982105;28;46290;-67
2022/10/25 06:58:03;;;;;;;8.13;3.90;;;11.20;76.60;;;;;;4967531;28;46709;-67
2022/10/25 07:00:28;;;;;;;4.17;2.87;;;11.40;75.30;;;;;;4983764;28;48193;-67
2022/10/25 07:02:58;;;;;;;13.53;7.30;;;11.50;76.30;;;;;;4983577;28;46610;-67
2022/10/25 07:05:25;;;;;;;14.03;6.47;;;11.60;76.10;;;;;;4967456;28;46662;-67
2022/10/25 07:07:51;;;;;;;4.70;3.80;;;11.80;76.00;;;;;;4983646;28;46285;-67
2022/10/25 07:10:17;;;;;;;6.33;2.17;;;12.20;74.30;;;;;;4984855;28;47690;-67
2022/10/25 07:12:43;;;;;;;5.33;2.30;;;12.40;75.00;;;;;;4966818;28;46394;-67
2022/10/25 07:15:09;;;;;;;4.07;1.40;;;12.60;74.40;;;;;;4979820;28;46484;-67
2022/10/25 07:17:35;;;;;;;4.50;2.00;;;12.80;73.20;;;;;;4968687;28;46449;-67
2022/10/25 07:20:00;;;;;;;2.17;1.57;;;12.90;73.30;;;;;;4966311;28;48330;-67
2022/10/25 07:22:26;;;;;;;3.33;1.63;;;12.90;74.30;;;;;;4983907;28;46676;-68
2022/10/25 07:24:52;;;;;;;10.70;1.70;;;13.00;74.40;;;;;;4967041;28;46532;-67
2022/10/25 07:27:17;;;;;;;11.10;1.50;;;13.10;74.30;;;;;;4967233;28;46330;-67
2022/10/25 07:29:43;;;;;;;4.63;1.90;;;13.30;72.80;;;;;;4982269;28;47272;-67
2022/10/25 07:32:09;;;;;;;4.30;2.17;;;13.40;73.80;;;;;;4967096;28;46479;-68
2022/10/25 07:34:35;;;;;;;3.80;2.13;;;13.60;73.20;;;;;;4966323;28;46468;-68
2022/10/25 07:37:01;;;;;;;3.70;1.70;;;13.80;72.50;;;;;;4982454;28;46590;-67
2022/10/25 07:39:27;;;;;;;3.27;1.80;;;14.00;71.90;;;;;;4966382;28;46950;-67
2022/10/25 07:41:53;;;;;;;5.73;1.50;;;14.10;71.70;;;;;;4966178;28;46286;-68
2022/10/25 07:44:19;;;;;;;3.13;1.63;;;14.10;71.70;;;;;;4982798;28;46479;-68
2022/10/25 07:46:45;;;;;;;5.07;1.50;;;14.10;70.60;;;;;;4968506;28;46421;-67
2022/10/25 07:49:11;;;;;;;7.97;2.37;;;14.20;70.50;;;;;;4981462;28;48126;-67
2022/10/25 07:51:37;;;;;;;3.27;1.37;;;14.20;71.60;;;;;;4982692;28;46466;-68
2022/10/25 07:54:03;;;;;;;4.40;1.90;;;14.20;71.70;;;;;;4968183;28;46440;-68
2022/10/25 07:56:29;;;;;;;3.47;1.50;;;14.30;71.80;;;;;;4982781;28;46270;-68
2022/10/25 07:58:54;;;;;;;2.50;1.47;;;14.30;70.60;;;;;;4981937;28;47971;-67
2022/10/25 08:01:23;;;;;;;2.70;1.50;;;14.30;71.50;;;;;;4966441;28;46330;-68
2022/10/25 08:03:50;;;;;;;2.53;1.30;;;14.30;71.80;;;;;;4962619;28;46478;-68
2022/10/25 08:06:16;;;;;;;3.50;1.50;;;14.40;71.70;;;;;;4984663;28;45895;-67
2022/10/25 08:08:41;;;;;;;4.13;1.57;;;14.70;70.60;;;;;;4981634;28;47683;-68
2022/10/25 08:11:07;;;;;;;4.17;1.97;;;14.60;71.50;;;;;;4983642;28;46392;-67
2022/10/25 08:13:37;;;;;;;5.97;1.50;;;14.80;71.30;;;;;;4983316;28;46314;-67
2022/10/25 08:16:04;;;;;;;8.70;1.30;;;14.80;71.20;;;;;;4982096;28;46404;-67
2022/10/25 08:18:30;;;;;;;4.13;1.37;;;14.80;71.30;;;;;;4983793;28;48144;-68
2022/10/25 08:20:56;;;;;;;2.77;1.40;;;14.80;70.30;;;;;;4981910;28;46471;-68
2022/10/25 08:23:24;;;;;;;2.70;1.10;;;14.80;71.70;;;;;;4966366;28;46387;-68
2022/10/25 08:25:49;;;;;;;3.00;1.40;;;14.80;71.40;;;;;;4964843;28;46287;-67
2022/10/25 08:28:15;;;;;;;3.03;1.70;;;14.80;71.40;;;;;;4982007;28;48377;-67
2022/10/25 08:30:41;;;;;;;4.10;1.47;;;14.70;70.20;;;;;;4983368;28;46438;-67
2022/10/25 08:33:07;;;;;;;4.80;1.80;;;14.70;71.60;;;;;;4984183;28;46404;-67
2022/10/25 08:35:33;;;;;;;3.53;1.60;;;14.60;71.50;;;;;;4982786;28;46500;-67
2022/10/25 08:37:59;;;;;;;3.83;1.23;;;14.70;71.70;;;;;;4983381;28;47786;-67
2022/10/25 08:40:45;;;;;;;4.73;1.43;;;14.80;71.70;;;;;;4981090;28;46435;-67
2022/10/25 08:43:23;;;;;;;3.90;1.47;;;14.90;71.30;;;;;;4964687;28;46290;-67
2022/10/25 08:45:54;;;;;;;5.30;1.70;;;15.00;70.70;;;;;;4967040;28;46640;-67
2022/10/25 08:48:26;;;;;;;3.73;1.17;;;15.10;70.50;;;;;;4965741;28;48280;-67
2022/10/25 08:50:59;;;;;;;3.77;1.43;;;15.20;70.30;;;;;;4965559;28;46328;-67
2022/10/25 08:53:41;;;;;;;6.80;1.40;;;15.20;70.20;;;;;;4982105;28;46374;-67
2022/10/25 08:56:12;;;;;;;4.23;1.70;;;15.30;71.10;;;;;;4965081;28;46341;-67
2022/10/25 08:58:46;;;;;;;2.60;1.40;;;15.30;69.90;;;;;;4982035;28;46744;-67
2022/10/25 09:01:17;;;;;;;5.20;1.23;;;15.30;69.40;;;;;;4964553;28;46450;-67
2022/10/25 09:03:43;;;;;;;2.60;1.50;;;15.30;69.30;;;;;;4983363;28;46121;-67
2022/10/25 09:06:20;;;;;;;5.77;1.60;;;15.40;69.40;;;;;;4981958;28;46500;-67
2022/10/25 09:09:04;;;;;;;5.53;1.60;;;15.50;68.40;;;;;;4965826;28;48316;-67
2022/10/25 09:11:39;;;;;;;6.40;1.60;;;15.60;69.50;;;;;;4962018;28;46827;-67
2022/10/25 09:14:12;;;;;;;6.97;1.53;;;15.60;70.50;;;;;;4982915;28;46209;-67
2022/10/25 09:16:48;;;;;;;5.10;1.37;;;15.70;69.20;;;;;;4981527;28;45997;-67
2022/10/25 09:19:31;;;;;;;2.80;1.10;;;15.80;68.90;;;;;;4964668;28;48190;-67
2022/10/25 09:22:03;;;;;;;3.00;1.30;;;15.90;68.70;;;;;;4983354;28;46423;-67
2022/10/25 09:24:34;;;;;;;3.83;1.53;;;16.10;68.20;;;;;;4981402;28;46509;-67
2022/10/25 09:27:02;;;;;;;5.97;1.40;;;16.20;67.80;;;;;;4984253;28;46452;-67
2022/10/25 09:29:38;;;;;;;4.67;1.17;;;16.30;67.60;;;;;;4967349;28;48027;-67
2022/10/25 09:32:26;;;;;;;3.50;1.70;;;16.40;67.30;;;;;;4960161;28;46607;-67
2022/10/25 09:34:53;;;;;;;8.70;1.67;;;16.30;66.80;;;;;;4958641;28;45827;-67
2022/10/25 09:37:25;;;;;;;15.97;1.60;;;16.40;67.00;;;;;;4965595;28;46284;-67
2022/10/25 09:39:59;;;;;;;4.20;1.30;;;16.50;66.70;;;;;;4979463;28;46670;-67
2022/10/25 09:42:30;;;;;;;6.67;1.30;;;16.60;66.60;;;;;;4965773;28;46379;-67
2022/10/25 09:45:05;;;;;;;5.37;1.57;;;16.60;66.20;;;;;;4981831;28;46363;-67
2022/10/25 09:47:40;;;;;;;3.60;1.43;;;16.60;65.90;;;;;;4964438;28;46560;-66
2022/10/25 09:50:14;;;;;;;7.80;1.30;;;16.70;65.70;;;;;;4965230;28;48748;-67
2022/10/25 09:53:00;;;;;;;3.80;1.53;;;16.70;65.50;;;;;;4982192;28;46359;-67
2022/10/25 09:55:42;;;;;;;3.27;1.40;;;16.70;65.10;;;;;;4982191;28;46399;-66
2022/10/25 09:58:21;;;;;;;6.93;1.60;;;16.70;64.70;;;;;;4964878;28;46334;-67
2022/10/25 10:00:49;;;;;;;7.00;1.30;;;16.60;64.10;;;;;;4964209;28;46761;-67
2022/10/25 10:03:15;;;;;;;2.97;1.17;;;16.60;64.60;;;;;;4980866;28;46431;-67
2022/10/25 10:05:55;;;;;;;3.47;1.73;;;16.70;64.50;;;;;;4964784;28;46530;-67
2022/10/25 10:08:21;;;;;;;4.10;1.40;;;16.80;64.10;;;;;;4964191;28;46566;-67
2022/10/25 10:10:49;;;;;;;3.03;1.17;;;16.70;64.00;;;;;;4979566;28;47878;-67
2022/10/25 10:13:36;;;;;;;4.30;1.27;;;16.80;65.10;;;;;;4964263;28;46424;-67
2022/10/25 10:16:05;;;;;;;4.47;1.30;;;16.60;63.20;;;;;;4963035;28;46334;-67
2022/10/25 10:18:32;;;;;;;6.10;1.33;;;16.40;62.90;;;;;;4983113;28;46372;-67
2022/10/25 10:21:15;;;;;;;6.73;1.53;;;16.20;63.40;;;;;;4965097;28;48119;-67
2022/10/25 10:23:52;;;;;;;4.50;1.20;;;16.20;63.10;;;;;;4981815;28;46438;-68
2022/10/25 10:26:23;;;;;;;5.43;1.57;;;16.20;62.90;;;;;;4981180;28;46468;-68
2022/10/25 10:28:59;;;;;;;2.70;1.20;;;16.30;59.90;;;;;;4967451;28;46441;-67
2022/10/25 10:31:36;;;;;;;3.30;1.20;;;16.30;60.70;;;;;;4968045;28;47644;-67
2022/10/25 10:34:02;;;;;;;8.37;1.30;;;16.30;59.10;;;;;;4961664;28;46500;-67
2022/10/25 10:36:30;;;;;;;2.90;1.30;;;16.30;59.00;;;;;;4968121;28;46464;-67
2022/10/25 10:39:20;;;;;;;5.97;1.40;;;16.50;56.60;;;;;;4983570;28;46621;-67
2022/10/25 10:42:04;;;;;;;5.83;1.30;;;16.50;57.70;;;;;;4982770;28;47366;-67
2022/10/25 10:44:33;;;;;;;6.90;1.20;;;16.50;57.60;;;;;;4967719;28;46345;-68
2022/10/25 10:47:08;;;;;;;5.30;1.10;;;16.60;57.70;;;;;;4983342;28;46599;-67
2022/10/25 10:49:37;;;;;;;4.43;1.23;;;16.70;57.80;;;;;;4984895;28;46584;-67
2022/10/25 10:52:04;;;;;;;4.93;1.30;;;16.80;57.90;;;;;;4985483;28;47403;-67
2022/10/25 10:54:36;;;;;;;6.20;1.30;;;17.00;58.10;;;;;;4966305;28;46545;-67
2022/10/25 10:57:04;;;;;;;3.20;1.13;;;17.20;57.50;;;;;;4964458;28;46720;-67
2022/10/25 10:59:44;;;;;;;3.53;1.33;;;17.20;56.70;;;;;;4983827;28;46047;-66
2022/10/25 11:02:39;;;;;;;5.40;1.10;;;17.20;55.30;;;;;;4984825;28;46446;-67
2022/10/25 11:05:32;;;;;;;5.73;1.20;;;17.10;55.50;;;;;;4966990;28;46420;-67
2022/10/25 11:08:18;;;;;;;6.00;1.30;;;17.10;54.50;;;;;;4968324;28;46622;-67
2022/10/25 11:10:44;;;;;;;7.50;1.33;;;17.10;54.80;;;;;;4987689;28;46465;-68
2022/10/25 11:13:10;;;;;;;5.17;1.20;;;17.30;55.20;;;;;;4967600;28;48082;-68
2022/10/25 11:16:16;;;;;;;4.07;0.90;;;17.50;55.00;;;;;;4967882;28;46486;-67
2022/10/25 11:18:45;;;;;;;2.97;1.20;;;17.60;52.90;;;;;;4951837;28;46489;-67
2022/10/25 11:21:27;;;;;;;3.67;1.00;;;17.60;53.90;;;;;;4967859;28;46671;-67
2022/10/25 11:24:37;;;;;;;2.93;1.00;;;17.70;53.90;;;;;;4983231;28;46568;-67
2022/10/25 11:27:16;;;;;;;3.80;2.20;;;17.60;51.30;;;;;;4905837;28;46450;-67
2022/10/25 11:29:47;;;;;;;6.03;1.10;;;17.50;51.70;;;;;;4905898;28;46560;-68
2022/10/25 11:32:51;;;;;;;2.93;1.10;;;17.60;51.70;;;;;;4943498;28;46517;-67
2022/10/25 11:35:49;;;;;;;2.67;0.93;;;17.60;51.10;;;;;;4966799;28;46455;-69
2022/10/25 11:38:45;;;;;;;4.63;1.27;;;17.70;51.20;;;;;;4953274;28;45929;-68
2022/10/25 11:41:20;;;;;;;4.90;1.00;;;17.70;51.00;;;;;;4966622;28;46491;-67
2022/10/25 11:44:18;;;;;;;2.87;0.90;;;17.70;50.10;;;;;;4965461;28;46524;-67
2022/10/25 11:46:47;;;;;;;5.20;1.07;;;17.80;50.40;;;;;;4916005;28;46871;-67
2022/10/25 11:49:24;;;;;;;1.97;0.93;;;17.90;50.80;;;;;;4966247;28;46413;-68
2022/10/25 11:51:56;;;;;;;3.03;0.90;;;17.90;50.60;;;;;;4965188;28;46754;-67
2022/10/25 11:54:59;;;;;;;2.20;0.90;;;17.90;49.00;;;;;;4967219;28;46471;-69
2022/10/25 11:57:56;;;;;;;5.33;2.33;;;17.80;48.80;;;;;;4982174;28;46551;-67
2022/10/25 12:00:25;;;;;;;2.70;1.00;;;17.90;50.00;;;;;;4965872;28;46499;-67
2022/10/25 12:03:17;;;;;;;4.33;1.30;;;17.90;49.40;;;;;;4967149;28;46322;-67
2022/10/25 12:06:08;;;;;;;1.97;1.00;;;17.90;49.10;;;;;;4958778;28;46423;-67
2022/10/25 12:08:46;;;;;;;2.97;1.10;;;18.00;48.90;;;;;;4965744;28;48408;-67
2022/10/25 12:11:21;;;;;;;4.30;1.37;;;18.10;48.00;;;;;;4965481;28;46560;-67
2022/10/25 12:13:52;;;;;;;5.03;2.07;;;17.90;45.70;;;;;;4982965;28;46445;-69
2022/10/25 12:16:20;;;;;;;4.33;1.30;;;17.80;45.70;;;;;;4981916;28;46496;-69
2022/10/25 12:19:07;;;;;;;3.60;1.30;;;17.90;46.00;;;;;;4983329;28;47270;-68
2022/10/25 12:21:54;;;;;;;3.70;1.07;;;18.00;46.70;;;;;;4966380;28;45853;-67
2022/10/25 12:24:25;;;;;;;3.53;1.03;;;18.10;46.50;;;;;;4964359;28;46433;-69
2022/10/25 12:26:53;;;;;;;3.53;1.13;;;18.00;45.80;;;;;;4984636;28;46409;-67
2022/10/25 12:29:38;;;;;;;3.10;1.10;;;17.80;42.90;;;;;;4983259;28;46700;-68
2022/10/25 12:32:26;;;;;;;4.03;0.90;;;17.70;44.10;;;;;;4957907;28;46438;-68
2022/10/25 12:34:59;;;;;;;3.70;1.10;;;17.70;43.90;;;;;;4983290;28;46423;-68
2022/10/25 12:37:46;;;;;;;3.30;0.87;;;17.70;44.30;;;;;;4966611;28;46545;-67
2022/10/25 12:40:16;;;;;;;3.20;1.10;;;17.70;44.70;;;;;;4963010;28;48298;-68
2022/10/25 12:43:12;;;;;;;2.17;0.93;;;17.70;45.30;;;;;;4965504;28;46418;-68
2022/10/25 12:46:13;;;;;;;6.30;1.10;;;17.90;45.00;;;;;;4979499;28;46513;-69
2022/10/25 12:49:04;;;;;;;4.43;1.10;;;18.10;44.50;;;;;;4960173;28;46521;-68
2022/10/25 12:51:44;;;;;;;3.83;1.00;;;18.30;44.40;;;;;;4961801;28;47925;-68
2022/10/25 12:54:25;;;;;;;7.43;1.20;;;18.50;44.50;;;;;;4964497;28;46686;-68
2022/10/25 12:57:09;;;;;;;2.93;1.00;;;18.70;43.90;;;;;;4959250;28;46441;-68
2022/10/25 13:00:01;;;;;;;4.27;1.10;;;18.80;41.40;;;;;;4961915;28;46345;-69
2022/10/25 13:03:01;;;;;;;5.27;1.10;;;18.80;42.60;;;;;;4963791;28;47638;-69
2022/10/25 13:05:52;;;;;;;5.20;1.00;;;18.80;42.80;;;;;;4963606;28;46438;-67
2022/10/25 13:08:20;;;;;;;2.87;0.93;;;19.00;42.80;;;;;;4965313;28;46774;-68
2022/10/25 13:10:54;;;;;;;2.93;1.10;;;18.90;43.20;;;;;;4977785;28;46562;-68
2022/10/25 13:13:32;;;;;;;5.03;1.50;;;18.80;43.40;;;;;;4976890;28;48951;-70